Time;durP1;ratioP1;P1;durP2;ratioP2;P2;SDS_P1;SDS_P2;PMS_P1;PMS_P2;Temp;Humidity;BMP_temperature;BMP_pressure;BME280_temperature;BME280_humidity;BME280_pressure;Samples;Min_cycle;Max_cycle;Signal;HPM_P1;HPM_P2
2023/04/15 00:00:12;;;;;;;12.50;7.07;;;;;;;9.13;62.27;99069.25;5058501;28;20032;-77
2023/04/15 00:02:37;;;;;;;15.45;8.27;;;;;;;9.16;62.57;99069.53;5059060;28;20798;-78
2023/04/15 00:05:04;;;;;;;14.93;8.07;;;;;;;9.10;62.16;99070.59;5058598;28;20244;-76
2023/04/15 00:07:30;;;;;;;13.93;8.00;;;;;;;9.12;62.36;99063.00;5058770;28;20249;-77
2023/04/15 00:09:56;;;;;;;14.57;7.43;;;;;;;9.02;61.93;99061.09;5057979;28;20034;-77
2023/04/15 00:12:22;;;;;;;11.95;8.00;;;;;;;8.93;62.14;99063.53;5058421;28;20024;-77
2023/04/15 00:14:48;;;;;;;18.70;7.57;;;;;;;8.83;62.12;99058.06;5057507;28;20537;-76
2023/04/15 00:17:14;;;;;;;14.43;7.35;;;;;;;8.75;62.64;99062.16;5058900;28;20036;-77
2023/04/15 00:19:39;;;;;;;11.57;7.53;;;;;;;8.73;62.69;99065.16;5058569;28;20389;-77
2023/04/15 00:22:05;;;;;;;14.95;6.68;;;;;;;8.67;62.75;99066.22;5058643;28;20020;-77
2023/04/15 00:24:30;;;;;;;16.83;10.73;;;;;;;8.61;63.52;99067.28;5056962;28;20025;-77
2023/04/15 00:26:56;;;;;;;11.45;7.10;;;;;;;8.50;63.59;99056.38;5059023;28;20074;-76
2023/04/15 00:29:21;;;;;;;14.95;7.20;;;;;;;8.44;64.08;99059.34;5057448;28;20052;-77
2023/04/15 00:31:46;;;;;;;18.73;9.82;;;;;;;8.40;63.81;99053.66;5059575;28;20066;-76
2023/04/15 00:34:12;;;;;;;12.40;6.88;;;;;;;8.38;64.09;99062.03;5059692;28;20045;-77
2023/04/15 00:36:37;;;;;;;15.30;8.20;;;;;;;8.21;63.85;99054.13;5062609;28;20115;-77
2023/04/15 00:39:04;;;;;;;15.63;10.13;;;;;;;8.09;64.97;99056.25;5061675;28;20518;-77
2023/04/15 00:41:30;;;;;;;16.25;9.05;;;;;;;8.07;65.63;99059.25;5061639;28;20040;-77
2023/04/15 00:43:55;;;;;;;17.65;9.00;;;;;;;8.23;65.18;99065.53;5060489;28;20028;-77
2023/04/15 00:46:21;;;;;;;15.77;9.25;;;;;;;8.31;65.54;99058.78;5061022;28;20163;-77
2023/04/15 00:48:46;;;;;;;19.90;11.15;;;;;;;8.29;65.65;99067.19;5062209;28;20036;-76
2023/04/15 00:51:12;;;;;;;32.20;11.57;;;;;;;8.31;66.13;99057.94;5061126;28;20325;-78
2023/04/15 00:53:38;;;;;;;18.63;11.07;;;;;;;8.21;66.33;99054.13;5062752;28;20257;-77
2023/04/15 00:56:04;;;;;;;14.02;9.45;;;;;;;8.20;66.58;99055.19;5062208;28;20037;-76
2023/04/15 00:58:30;;;;;;;20.88;11.70;;;;;;;8.20;66.49;99047.06;5062585;28;20031;-76
2023/04/15 01:00:56;;;;;;;18.38;10.95;;;;;;;8.18;66.50;99060.06;5062637;28;20652;-74
2023/04/15 01:03:21;;;;;;;21.15;11.00;;;;;;;8.18;66.42;99055.47;5061563;28;20158;-73
2023/04/15 01:05:47;;;;;;;19.65;9.10;;;;;;;8.14;66.53;99051.66;5061633;28;20073;-74
2023/04/15 01:08:12;;;;;;;19.98;10.23;;;;;;;8.16;66.29;99046.78;5061312;28;20852;-74
2023/04/15 01:10:38;;;;;;;15.80;9.10;;;;;;;8.19;66.27;99061.72;5060794;28;20154;-74
2023/04/15 01:13:03;;;;;;;18.42;9.30;;;;;;;8.19;66.04;99056.28;5061512;28;20616;-74
2023/04/15 01:15:29;;;;;;;15.10;8.25;;;;;;;8.21;65.90;99056.84;5060728;28;20028;-73
2023/04/15 01:17:57;;;;;;;11.35;7.50;;;;;;;8.19;65.71;99056.28;5060713;28;20056;-73
2023/04/15 01:20:23;;;;;;;14.98;9.10;;;;;;;8.23;65.97;99057.41;5060285;28;20524;-73
2023/04/15 01:22:48;;;;;;;17.95;9.55;;;;;;;8.31;65.73;99058.78;5060950;28;20029;-74
2023/04/15 01:25:18;;;;;;;15.40;9.38;;;;;;;8.38;65.15;99063.97;5059938;28;20113;-74
2023/04/15 01:27:44;;;;;;;15.23;9.27;;;;;;;8.41;65.24;99058.81;5060409;28;20575;-73
2023/04/15 01:30:10;;;;;;;16.40;8.73;;;;;;;8.42;65.49;99062.31;5060655;28;20028;-74
2023/04/15 01:32:35;;;;;;;15.05;8.90;;;;;;;8.39;65.33;99060.97;5060019;28;20025;-73
2023/04/15 01:35:01;;;;;;;13.32;8.60;;;;;;;8.42;65.24;99051.44;5059662;28;20513;-73
2023/04/15 01:37:26;;;;;;;18.85;11.10;;;;;;;8.51;65.46;99054.47;5060291;28;20024;-74
2023/04/15 01:39:51;;;;;;;14.52;8.77;;;;;;;8.52;65.51;99054.19;5060595;28;20052;-74
2023/04/15 01:42:17;;;;;;;14.07;9.23;;;;;;;8.67;64.75;99054.53;5060669;28;20070;-74
2023/04/15 01:44:42;;;;;;;14.00;8.05;;;;;;;8.66;64.66;99051.00;5059957;28;20033;-74
2023/04/15 01:47:07;;;;;;;22.48;9.18;;;;;;;8.58;64.68;99055.09;5059814;28;20039;-73
2023/04/15 01:49:33;;;;;;;13.17;8.03;;;;;;;8.55;64.76;99062.91;5060342;28;20032;-74
2023/04/15 01:51:58;;;;;;;15.70;8.07;;;;;;;8.43;64.98;99055.81;5059793;28;20264;-74
2023/04/15 01:54:23;;;;;;;12.35;8.23;;;;;;;8.39;64.73;99054.72;5059190;28;20036;-74
2023/04/15 01:56:49;;;;;;;15.00;7.73;;;;;;;8.31;65.45;99057.94;5059414;28;20134;-74
2023/04/15 01:59:14;;;;;;;12.10;8.48;;;;;;;8.24;65.39;99053.59;5060222;28;20315;-74
2023/04/15 02:01:39;;;;;;;15.57;8.37;;;;;;;8.18;65.88;99051.94;5059794;28;20032;-74
2023/04/15 02:04:06;;;;;;;14.52;8.98;;;;;;;8.17;65.85;99058.47;5060209;28;20281;-73
2023/04/15 02:06:31;;;;;;;13.93;8.30;;;;;;;8.15;65.90;99055.19;5058939;28;20029;-73
2023/04/15 02:08:57;;;;;;;15.25;8.38;;;;;;;8.06;65.92;99057.59;5058685;28;20639;-73
2023/04/15 02:11:23;;;;;;;12.13;7.57;;;;;;;8.05;66.12;99061.41;5058626;28;20029;-75
2023/04/15 02:13:48;;;;;;;15.95;8.80;;;;;;;8.03;65.90;99056.22;5059657;28;20032;-74
2023/04/15 02:16:15;;;;;;;17.27;10.27;;;;;;;7.95;65.93;99056.75;5058887;28;20174;-73
2023/04/15 02:18:40;;;;;;;18.05;9.57;;;;;;;7.80;66.11;99062.91;5058098;28;20123;-73
2023/04/15 02:21:06;;;;;;;15.37;8.37;;;;;;;7.68;65.94;99058.50;5059129;28;20512;-73
2023/04/15 02:23:31;;;;;;;19.95;11.73;;;;;;;7.59;66.43;99063.59;5059410;28;20260;-73
2023/04/15 02:25:56;;;;;;;24.50;11.20;;;;;;;7.47;67.00;99062.97;5059137;28;20060;-73
2023/04/15 02:28:21;;;;;;;17.33;9.88;;;;;;;7.45;66.96;99076.00;5059394;28;20331;-73
2023/04/15 02:30:51;;;;;;;21.27;9.93;;;;;;;7.41;67.56;99080.28;5058844;28;20082;-74
2023/04/15 02:33:16;;;;;;;13.68;8.13;;;;;;;7.42;67.38;99087.38;5059371;28;20040;-74
2023/04/15 02:35:44;;;;;;;14.38;8.88;;;;;;;7.44;67.23;99090.66;5059409;28;20037;-74
2023/04/15 02:38:10;;;;;;;19.30;10.35;;;;;;;7.44;67.56;99087.94;5059235;28;20115;-73
2023/04/15 02:40:36;;;;;;;19.17;10.80;;;;;;;7.50;67.66;99084.19;5060210;28;20048;-74
2023/04/15 02:43:01;;;;;;;15.88;9.70;;;;;;;7.50;67.74;99083.34;5059441;28;20032;-73
2023/04/15 02:45:27;;;;;;;14.95;9.80;;;;;;;7.46;67.48;99088.50;5058247;28;20241;-74
2023/04/15 02:47:52;;;;;;;15.98;10.10;;;;;;;7.39;67.99;99083.28;5059420;28;20490;-74
2023/04/15 02:50:17;;;;;;;15.23;9.27;;;;;;;7.31;68.11;99092.72;5058875;28;20446;-74
2023/04/15 02:52:43;;;;;;;19.77;10.85;;;;;;;7.30;68.09;99099.19;5059116;28;20047;-74
2023/04/15 02:55:09;;;;;;;21.33;10.63;;;;;;;7.31;67.84;99095.44;5058170;28;20037;-77
2023/04/15 02:57:36;;;;;;;20.80;11.43;;;;;;;7.34;68.04;99102.25;5059364;28;20366;-77
2023/04/15 03:00:03;;;;;;;17.10;10.73;;;;;;;7.40;67.84;99092.25;5059648;28;20359;-76
2023/04/15 03:02:33;;;;;;;15.40;10.60;;;;;;;7.47;67.29;99107.22;5059381;28;20111;-76
2023/04/15 03:04:58;;;;;;;16.05;11.25;;;;;;;7.49;67.89;99098.81;5060002;28;20117;-76
2023/04/15 03:07:24;;;;;;;16.53;10.20;;;;;;;7.42;67.46;99109.06;5058761;28;20506;-77
2023/04/15 03:09:49;;;;;;;20.98;11.38;;;;;;;7.39;68.20;99120.41;5059983;28;20258;-76
2023/04/15 03:12:15;;;;;;;16.27;10.80;;;;;;;7.40;67.89;99111.22;5059503;28;20032;-77
2023/04/15 03:14:40;;;;;;;19.17;11.35;;;;;;;7.40;68.08;99105.78;5058454;28;20040;-77
2023/04/15 03:17:06;;;;;;;16.33;10.38;;;;;;;7.45;67.83;99112.06;5059010;28;20044;-77
2023/04/15 03:19:31;;;;;;;21.02;10.07;;;;;;;7.51;68.06;99106.66;5058603;28;20165;-77
2023/04/15 03:21:56;;;;;;;19.15;11.35;;;;;;;7.52;67.84;99103.72;5060029;28;20028;-78
2023/04/15 03:24:22;;;;;;;18.27;11.30;;;;;;;7.50;67.94;99103.16;5059095;28;20046;-77
2023/04/15 03:26:47;;;;;;;17.88;10.85;;;;;;;7.54;68.24;99109.72;5058455;28;20033;-77
2023/04/15 03:29:12;;;;;;;22.67;10.60;;;;;;;7.58;67.94;99120.84;5058457;28;20895;-77
2023/04/15 03:31:37;;;;;;;21.80;13.50;;;;;;;7.58;68.05;99115.41;5058935;28;20292;-77
2023/04/15 03:34:03;;;;;;;15.77;11.77;;;;;;;7.56;68.47;99114.88;5059108;28;20284;-77
2023/04/15 03:36:31;;;;;;;15.17;11.23;;;;;;;7.57;68.22;99116.47;5058764;28;20269;-77
2023/04/15 03:38:56;;;;;;;18.55;9.95;;;;;;;7.58;68.11;99118.97;5058522;28;20366;-77
2023/04/15 03:41:21;;;;;;;16.42;10.60;;;;;;;7.58;68.33;99121.69;5059089;28;20033;-77
2023/04/15 03:43:47;;;;;;;17.83;12.05;;;;;;;7.56;68.00;99114.88;5058488;28;20036;-77
2023/04/15 03:46:12;;;;;;;16.30;9.23;;;;;;;7.51;68.36;99123.78;5058861;28;20060;-77
2023/04/15 03:48:37;;;;;;;14.83;9.37;;;;;;;7.48;68.51;99129.72;5058042;28;20269;-76
2023/04/15 03:51:02;;;;;;;18.43;10.73;;;;;;;7.46;68.06;99126.47;5059586;28;20777;-77
2023/04/15 03:53:28;;;;;;;20.90;11.10;;;;;;;7.41;68.30;99131.81;5058669;28;20257;-76
2023/04/15 03:55:53;;;;;;;19.60;11.88;;;;;;;7.33;68.55;99130.41;5058969;28;20395;-76
2023/04/15 03:58:18;;;;;;;16.93;9.87;;;;;;;7.27;69.01;99123.31;5057886;28;20081;-76
2023/04/15 04:00:43;;;;;;;18.30;11.48;;;;;;;7.34;68.99;99140.19;5059385;28;20289;-77
2023/04/15 04:03:09;;;;;;;17.30;10.07;;;;;;;7.30;69.03;99137.16;5057957;28;20016;-76
2023/04/15 04:05:37;;;;;;;16.27;11.47;;;;;;;7.29;69.16;99138.25;5058515;28;20529;-76
2023/04/15 04:08:03;;;;;;;20.73;12.38;;;;;;;7.30;69.11;99134.44;5060476;28;20254;-78
2023/04/15 04:10:28;;;;;;;18.23;11.45;;;;;;;7.29;69.05;99129.28;5061673;28;20359;-77
2023/04/15 04:12:53;;;;;;;22.60;12.53;;;;;;;7.31;68.82;99140.69;5062159;28;20044;-77
2023/04/15 04:15:18;;;;;;;25.50;13.33;;;;;;;7.26;68.81;99136.03;5061451;28;20363;-77
2023/04/15 04:17:44;;;;;;;35.23;13.37;;;;;;;7.19;68.94;99135.44;5062516;28;21457;-76
2023/04/15 04:20:10;;;;;;;27.90;15.23;;;;;;;7.12;68.98;99135.66;5061131;28;20275;-77
2023/04/15 04:22:39;;;;;;;27.73;14.15;;;;;;;7.12;69.13;99144.59;5061866;28;20383;-77
2023/04/15 04:25:05;;;;;;;21.08;12.55;;;;;;;7.08;69.36;99140.78;5062160;28;20045;-77
2023/04/15 04:27:31;;;;;;;22.52;13.80;;;;;;;7.08;69.56;99142.66;5062414;28;20038;-76
2023/04/15 04:29:56;;;;;;;25.27;13.87;;;;;;;7.04;69.71;99147.78;5062038;28;20029;-78
2023/04/15 04:32:21;;;;;;;23.67;13.73;;;;;;;7.01;69.75;99145.59;5061672;28;20936;-77
2023/04/15 04:34:47;;;;;;;26.63;13.27;;;;;;;7.02;69.82;99143.72;5061452;28;20289;-76
2023/04/15 04:37:12;;;;;;;27.77;14.10;;;;;;;7.04;69.73;99145.06;5061132;28;20265;-77
2023/04/15 04:39:37;;;;;;;20.52;11.43;;;;;;;7.04;69.89;99155.91;5059639;28;20152;-76
2023/04/15 04:42:03;;;;;;;25.35;12.65;;;;;;;7.03;70.00;99156.19;5060463;28;20028;-76
2023/04/15 04:44:28;;;;;;;19.02;11.98;;;;;;;7.07;69.73;99158.13;5060674;28;20037;-76
2023/04/15 04:46:53;;;;;;;20.52;12.73;;;;;;;7.08;69.52;99148.91;5061954;28;20039;-77
2023/04/15 04:49:19;;;;;;;19.50;11.27;;;;;;;7.10;70.15;99160.31;5060740;28;20393;-77
2023/04/15 04:51:45;;;;;;;29.70;13.70;;;;;;;7.15;69.74;99164.97;5061609;28;20334;-77
2023/04/15 04:54:11;;;;;;;17.63;11.95;;;;;;;7.16;69.34;99171.22;5060769;28;20033;-76
2023/04/15 04:56:38;;;;;;;22.88;12.45;;;;;;;7.10;69.72;99179.28;5062136;28;20036;-77
2023/04/15 04:59:03;;;;;;;19.15;10.63;;;;;;;7.05;69.86;99181.97;5061411;28;20036;-77
2023/04/15 05:01:29;;;;;;;16.48;11.35;;;;;;;7.01;70.14;99180.84;5060343;28;20036;-76
2023/04/15 05:03:54;;;;;;;18.92;11.50;;;;;;;7.02;70.02;99179.75;5060279;28;20028;-76
2023/04/15 05:06:20;;;;;;;15.35;11.23;;;;;;;6.99;69.84;99178.38;5060291;28;20037;-76
2023/04/15 05:08:45;;;;;;;25.65;13.20;;;;;;;6.95;70.24;99190.81;5061241;28;20039;-77
2023/04/15 05:11:11;;;;;;;18.80;11.10;;;;;;;6.96;70.34;99192.44;5060792;28;20075;-77
2023/04/15 05:13:40;;;;;;;19.08;11.38;;;;;;;6.97;70.37;99191.38;5062103;28;20114;-77
2023/04/15 05:16:06;;;;;;;19.10;11.00;;;;;;;6.99;70.26;99194.66;5059813;28;20051;-78
2023/04/15 05:18:32;;;;;;;23.13;12.68;;;;;;;6.99;70.64;99200.06;5061275;28;20037;-77
2023/04/15 05:20:57;;;;;;;18.67;12.38;;;;;;;7.08;70.84;99192.28;5060408;28;20796;-78
2023/04/15 05:23:23;;;;;;;18.88;13.10;;;;;;;7.23;70.42;99198.94;5060204;28;20055;-77
2023/04/15 05:25:48;;;;;;;21.00;12.63;;;;;;;7.24;70.34;99200.59;5059783;28;20044;-77
2023/04/15 05:28:13;;;;;;;18.67;12.57;;;;;;;7.29;69.94;99207.94;5060806;28;20265;-78
2023/04/15 05:30:39;;;;;;;25.15;13.43;;;;;;;7.35;70.09;99207.75;5060830;28;20392;-77
2023/04/15 05:33:04;;;;;;;17.85;11.80;;;;;;;7.38;70.41;99208.28;5060994;28;20028;-78
2023/04/15 05:35:30;;;;;;;19.83;12.05;;;;;;;7.37;70.40;99210.19;5059997;28;20040;-76
2023/04/15 05:37:55;;;;;;;19.00;12.25;;;;;;;7.36;70.36;99212.06;5060570;28;20063;-77
2023/04/15 05:40:20;;;;;;;19.63;11.80;;;;;;;7.36;70.22;99225.63;5060277;28;20194;-77
2023/04/15 05:42:45;;;;;;;19.58;11.57;;;;;;;7.41;70.16;99224.03;5060747;28;20257;-77
2023/04/15 05:45:11;;;;;;;20.03;13.20;;;;;;;7.50;70.17;99225.22;5060787;28;20032;-77
2023/04/15 05:47:37;;;;;;;22.20;13.90;;;;;;;7.54;69.76;99226.34;5060475;28;20306;-77
2023/04/15 05:50:03;;;;;;;20.38;11.82;;;;;;;7.57;69.92;99235.84;5060906;28;20033;-76
2023/04/15 05:52:28;;;;;;;25.05;13.45;;;;;;;7.55;69.74;99238.81;5060494;28;20056;-78
2023/04/15 05:54:54;;;;;;;19.17;11.65;;;;;;;7.53;69.87;99245.56;5059946;28;20116;-78
2023/04/15 05:57:19;;;;;;;23.33;14.55;;;;;;;7.48;70.34;99239.03;5060898;28;20127;-79
2023/04/15 05:59:44;;;;;;;25.92;14.75;;;;;;;7.50;70.00;99243.41;5060435;28;20040;-77
2023/04/15 06:02:10;;;;;;;22.67;12.93;;;;;;;7.48;70.39;99249.88;5061030;28;20590;-78
2023/04/15 06:04:35;;;;;;;23.40;12.57;;;;;;;7.49;70.32;99250.69;5059996;28;20284;-79
2023/04/15 06:07:01;;;;;;;18.65;12.80;;;;;;;7.50;70.63;99252.34;5060831;28;20397;-79
2023/04/15 06:09:27;;;;;;;18.42;10.95;;;;;;;7.55;70.28;99255.09;5059494;28;20093;-78
2023/04/15 06:11:53;;;;;;;24.42;12.70;;;;;;;7.61;70.67;99257.88;5060295;28;20025;-78
2023/04/15 06:14:18;;;;;;;20.50;13.18;;;;;;;7.68;70.21;99253.88;5057177;28;20035;-80
2023/04/15 06:16:43;;;;;;;18.25;11.85;;;;;;;7.74;69.98;99260.16;5059808;28;20040;-80
2023/04/15 06:19:09;;;;;;;18.40;13.63;;;;;;;7.80;70.26;99261.03;5059542;28;20029;-80
2023/04/15 06:21:35;;;;;;;19.00;14.07;;;;;;;7.84;70.54;99251.28;5059134;28;20242;-79
2023/04/15 06:24:01;;;;;;;19.98;12.18;;;;;;;7.88;70.81;99257.00;5060418;28;20046;-80
2023/04/15 06:26:27;;;;;;;19.88;13.13;;;;;;;7.98;70.39;99259.81;5059503;28;20529;-79
2023/04/15 06:28:52;;;;;;;20.30;11.45;;;;;;;8.13;70.21;99271.88;5060200;28;20036;-79
2023/04/15 06:31:17;;;;;;;23.55;11.65;;;;;;;8.20;69.64;99277.06;5057534;28;21144;-79
2023/04/15 06:33:42;;;;;;;17.73;11.33;;;;;;;8.23;69.26;99284.69;5059855;28;20024;-79
2023/04/15 06:36:08;;;;;;;18.23;11.07;;;;;;;8.17;69.13;99286.56;5059643;28;20257;-79
2023/04/15 06:38:33;;;;;;;22.87;13.80;;;;;;;8.20;69.42;99282.50;5060112;28;20401;-79
2023/04/15 06:40:58;;;;;;;19.97;10.43;;;;;;;8.15;69.42;99283.28;5059926;28;20851;-80
2023/04/15 06:43:23;;;;;;;15.60;10.45;;;;;;;8.21;69.14;99287.69;5059929;28;20315;-78
2023/04/15 06:45:49;;;;;;;16.80;9.65;;;;;;;8.15;68.93;99284.09;5059173;28;20039;-79
2023/04/15 06:48:15;;;;;;;17.48;11.52;;;;;;;8.23;69.15;99290.94;5058489;28;20033;-79
2023/04/15 06:50:40;;;;;;;17.30;10.85;;;;;;;8.23;69.05;99292.84;5059425;28;20607;-80
2023/04/15 06:53:06;;;;;;;22.40;12.25;;;;;;;8.31;68.81;99286.94;5059377;28;20032;-81
2023/04/15 06:55:32;;;;;;;26.33;12.80;;;;;;;8.38;68.82;99294.84;5058516;28;20102;-81
2023/04/15 06:57:58;;;;;;;25.13;14.13;;;;;;;8.32;68.95;99293.97;5059953;28;20036;-81
2023/04/15 07:00:23;;;;;;;21.60;13.07;;;;;;;8.31;68.97;99286.94;5058165;28;20039;-81
2023/04/15 07:02:48;;;;;;;23.17;13.50;;;;;;;8.47;68.66;99298.72;5058130;28;20791;-80
2023/04/15 07:05:13;;;;;;;19.00;11.23;;;;;;;8.48;69.04;99297.63;5058113;28;20527;-80
2023/04/15 07:07:39;;;;;;;21.38;13.40;;;;;;;8.54;68.55;99301.19;5057923;28;20025;-81
2023/04/15 07:10:05;;;;;;;38.92;14.45;;;;;;;8.60;68.79;99310.22;5058784;28;20035;-79
2023/04/15 07:12:30;;;;;;;20.60;12.75;;;;;;;8.74;68.89;99307.84;5058085;28;20036;-79
2023/04/15 07:14:55;;;;;;;22.40;13.63;;;;;;;8.80;67.96;99309.53;5058281;28;20610;-80
2023/04/15 07:17:21;;;;;;;21.50;13.87;;;;;;;8.87;68.10;99306.53;5057848;28;20265;-80
2023/04/15 07:19:46;;;;;;;27.40;14.88;;;;;;;8.90;67.99;99307.94;5058735;28;20269;-78
2023/04/15 07:22:12;;;;;;;21.57;15.07;;;;;;;9.02;68.08;99310.44;5058419;28;20047;-79
2023/04/15 07:24:37;;;;;;;22.88;13.07;;;;;;;8.97;68.51;99309.31;5056968;28;20975;-79
2023/04/15 07:27:03;;;;;;;20.93;13.53;;;;;;;8.92;68.43;99306.59;5059438;28;20040;-79
2023/04/15 07:29:28;;;;;;;18.50;11.75;;;;;;;9.02;68.23;99310.44;5060109;28;20258;-79
2023/04/15 07:31:55;;;;;;;19.63;11.23;;;;;;;9.13;67.83;99311.28;5058680;28;20671;-79
2023/04/15 07:34:20;;;;;;;19.45;12.00;;;;;;;9.18;67.80;99314.03;5057371;28;20081;-80
2023/04/15 07:36:49;;;;;;;18.20;12.18;;;;;;;9.31;68.28;99318.16;5059101;28;20791;-78
2023/04/15 07:39:14;;;;;;;19.15;12.00;;;;;;;9.30;67.59;99317.34;5058705;28;20048;-79
2023/04/15 07:41:40;;;;;;;20.95;13.25;;;;;;;9.40;67.71;99315.72;5059640;28;20113;-81
2023/04/15 07:44:05;;;;;;;15.57;11.20;;;;;;;9.50;67.49;99314.94;5058827;28;20056;-85
2023/04/15 07:46:31;;;;;;;21.10;13.23;;;;;;;9.56;67.17;99322.00;5057665;28;20397;-81
2023/04/15 07:48:56;;;;;;;22.15;13.35;;;;;;;9.53;67.40;99325.28;5059151;28;20257;-76
2023/04/15 07:51:21;;;;;;;18.70;11.50;;;;;;;9.57;67.11;99329.09;5058437;28;20021;-80
2023/04/15 07:53:49;;;;;;;20.02;12.77;;;;;;;9.58;67.74;99328.81;5056423;28;20281;-78
2023/04/15 07:56:14;;;;;;;20.83;13.48;;;;;;;9.64;67.32;99326.94;5059902;28;20028;-78
2023/04/15 07:58:40;;;;;;;18.50;11.80;;;;;;;9.53;67.78;99328.84;5059180;28;20040;-79
2023/04/15 08:01:05;;;;;;;19.35;10.98;;;;;;;9.60;68.23;99331.28;5059565;28;20056;-80
2023/04/15 08:03:31;;;;;;;18.52;11.50;;;;;;;9.59;69.37;99335.09;5057400;28;20106;-80
2023/04/15 08:05:57;;;;;;;23.33;13.13;;;;;;;9.73;68.91;99329.13;5059576;28;20036;-79
2023/04/15 08:08:22;;;;;;;19.88;11.07;;;;;;;9.91;68.44;99336.78;5058856;28;20493;-80
2023/04/15 08:10:48;;;;;;;17.58;9.98;;;;;;;10.03;67.86;99327.53;5059735;28;21294;-80
2023/04/15 08:13:14;;;;;;;18.60;10.35;;;;;;;10.01;67.79;99329.69;5057907;28;20045;-80
2023/04/15 08:15:39;;;;;;;15.93;10.18;;;;;;;10.21;67.42;99330.81;5059603;28;20099;-80
2023/04/15 08:18:05;;;;;;;17.33;9.07;;;;;;;10.26;67.60;99330.78;5059096;28;20138;-79
2023/04/15 08:20:30;;;;;;;18.80;11.55;;;;;;;10.39;66.96;99341.13;5059092;28;20266;-80
2023/04/15 08:22:55;;;;;;;16.60;10.50;;;;;;;10.50;66.81;99338.44;5058916;28;20606;-79
2023/04/15 08:25:21;;;;;;;19.73;11.50;;;;;;;10.59;66.26;99334.06;5058829;28;20032;-81
2023/04/15 08:27:46;;;;;;;17.35;10.43;;;;;;;10.68;66.70;99333.50;5059546;28;20046;-78
2023/04/15 08:30:12;;;;;;;15.63;9.02;;;;;;;10.74;66.20;99340.56;5059331;28;20048;-81
2023/04/15 08:32:38;;;;;;;13.90;7.43;;;;;;;10.58;66.40;99332.41;5059787;28;20039;-82
2023/04/15 08:35:03;;;;;;;12.40;7.15;;;;;;;10.68;66.50;99347.16;5058510;28;20043;-84
2023/04/15 08:37:29;;;;;;;11.77;6.68;;;;;;;10.66;66.43;99343.88;5059470;28;20033;-83
2023/04/15 08:39:54;;;;;;;13.48;6.93;;;;;;;10.80;65.62;99342.19;5059360;28;20653;-80
2023/04/15 08:42:26;;;;;;;11.03;6.70;;;;;;;10.73;67.22;99347.94;5058761;28;20028;-81
2023/04/15 08:44:52;;;;;;;14.13;6.50;;;;;;;10.83;65.33;99338.91;5058770;28;20269;-81
2023/04/15 08:47:20;;;;;;;10.77;6.38;;;;;;;11.01;65.06;99344.03;5059549;28;20028;-86
2023/04/15 08:49:52;;;;;;;16.48;7.38;;;;;;;10.90;65.08;99344.06;5061087;28;20108;-88
2023/04/15 08:52:17;;;;;;;10.27;5.20;;;;;;;10.61;66.12;99353.69;5058498;28;20037;-81
2023/04/15 08:54:42;;;;;;;14.43;4.75;;;;;;;10.78;65.73;99346.31;5060826;28;20127;-81
2023/04/15 08:57:08;;;;;;;7.50;4.80;;;;;;;10.99;64.67;99349.78;5061191;28;20038;-80
2023/04/15 08:59:34;;;;;;;9.63;4.70;;;;;;;11.04;64.04;99363.41;5061663;28;20210;-79
2023/04/15 09:02:00;;;;;;;8.50;4.22;;;;;;;11.05;64.53;99351.41;5062894;28;20652;-80
2023/04/15 09:04:26;;;;;;;12.35;5.22;;;;;;;10.92;64.32;99354.72;5061660;28;20044;-80
2023/04/15 09:06:51;;;;;;;12.55;5.45;;;;;;;10.96;64.40;99358.53;5061903;28;20036;-80
2023/04/15 09:09:17;;;;;;;8.60;4.70;;;;;;;10.70;65.78;99361.31;5061390;28;20048;-78
2023/04/15 09:11:42;;;;;;;10.27;5.90;;;;;;;10.88;65.20;99361.81;5062615;28;20261;-79
2023/04/15 09:14:08;;;;;;;10.23;4.70;;;;;;;11.01;65.26;99365.84;5061689;28;20056;-79
2023/04/15 09:16:56;;;;;;;8.85;3.97;;;;;;;10.97;64.66;99376.50;5061072;28;20020;-78
2023/04/15 09:19:23;;;;;;;9.20;4.22;;;;;;;11.07;64.91;99376.47;5060983;28;20036;-79
2023/04/15 09:21:50;;;;;;;7.70;4.00;;;;;;;10.85;64.78;99376.81;5061945;28;20032;-79
2023/04/15 09:24:15;;;;;;;7.13;3.83;;;;;;;11.13;64.74;99381.91;5060832;28;20057;-80
2023/04/15 09:26:41;;;;;;;8.93;3.55;;;;;;;11.05;65.40;99383.31;5062458;28;20055;-80
2023/04/15 09:29:12;;;;;;;8.20;4.57;;;;;;;11.13;64.90;99384.63;5061412;28;20040;-80
2023/04/15 09:31:37;;;;;;;9.40;5.22;;;;;;;11.25;64.64;99393.34;5061584;28;20081;-79
2023/04/15 09:34:04;;;;;;;8.48;4.47;;;;;;;11.03;65.09;99391.78;5061747;28;20760;-81
2023/04/15 09:36:35;;;;;;;6.97;4.50;;;;;;;11.04;65.06;99398.06;5060935;28;20027;-79
2023/04/15 09:39:00;;;;;;;7.03;4.22;;;;;;;11.05;65.11;99400.50;5060806;28;20103;-78
2023/04/15 09:41:27;;;;;;;9.98;4.85;;;;;;;10.75;66.01;99404.91;5061219;28;20494;-76
2023/04/15 09:43:52;;;;;;;9.57;4.30;;;;;;;10.84;66.19;99405.97;5061561;28;20048;-78
2023/04/15 09:46:18;;;;;;;9.48;4.65;;;;;;;10.76;66.77;99414.72;5060854;28;20060;-77
2023/04/15 09:48:43;;;;;;;10.55;6.05;;;;;;;11.00;66.02;99407.88;5061280;28;20078;-78
2023/04/15 09:51:09;;;;;;;9.73;5.13;;;;;;;11.07;65.85;99413.84;5061212;28;20037;-78
2023/04/15 09:53:35;;;;;;;10.67;5.57;;;;;;;11.06;65.44;99412.22;5060760;28;20044;-79
2023/04/15 09:56:02;;;;;;;8.35;4.38;;;;;;;11.11;66.08;99409.47;5060095;28;20349;-76
2023/04/15 09:58:33;;;;;;;10.40;6.32;;;;;;;11.11;66.24;99414.94;5060369;28;20745;-81
2023/04/15 10:01:00;;;;;;;11.52;5.70;;;;;;;11.06;65.90;99415.78;5060545;28;20041;-82
2023/04/15 10:03:31;;;;;;;12.73;6.55;;;;;;;10.78;67.87;99420.72;5061138;28;20051;-80
2023/04/15 10:05:59;;;;;;;11.70;5.60;;;;;;;11.02;66.87;99417.44;5060428;28;20105;-78
2023/04/15 10:08:29;;;;;;;10.32;5.55;;;;;;;10.99;66.56;99417.97;5061811;28;20043;-79
2023/04/15 10:10:55;;;;;;;16.92;7.07;;;;;;;11.29;66.52;99426.34;5061067;28;20486;-79
2023/04/15 10:13:24;;;;;;;11.77;7.40;;;;;;;11.14;66.76;99419.03;5060974;28;20040;-76
2023/04/15 10:15:56;;;;;;;11.23;6.05;;;;;;;10.83;67.97;99426.19;5060952;28;20029;-79
2023/04/15 10:18:25;;;;;;;12.48;7.10;;;;;;;11.15;66.74;99426.09;5060051;28;20482;-78
2023/04/15 10:20:51;;;;;;;13.07;6.45;;;;;;;11.19;67.39;99432.63;5060717;28;20056;-79
2023/04/15 10:23:17;;;;;;;10.50;5.13;;;;;;;11.21;66.63;99435.91;5061347;28;20114;-78
2023/04/15 10:25:44;;;;;;;10.98;6.85;;;;;;;11.32;65.71;99442.16;5060499;28;20044;-79
2023/04/15 10:28:10;;;;;;;22.00;7.88;;;;;;;11.41;65.88;99434.25;5060349;28;20134;-75
2023/04/15 10:30:36;;;;;;;10.25;5.35;;;;;;;11.45;66.21;99448.97;5058506;28;20028;-76
2023/04/15 10:33:03;;;;;;;12.80;7.53;;;;;;;11.55;66.62;99443.44;5059173;28;20462;-78
2023/04/15 10:35:31;;;;;;;13.25;6.95;;;;;;;11.69;64.90;99440.13;5059102;28;20537;-78
2023/04/15 10:37:56;;;;;;;11.75;7.45;;;;;;;11.72;65.30;99450.47;5060849;28;20024;-78
2023/04/15 10:40:30;;;;;;;10.55;5.53;;;;;;;11.60;65.20;99452.72;5058751;28;20509;-77
2023/04/15 10:42:58;;;;;;;12.27;6.95;;;;;;;11.86;64.96;99449.84;5060518;28;20043;-77
2023/04/15 10:45:37;;;;;;;11.18;6.38;;;;;;;11.79;64.87;99459.19;5059044;28;20048;-78
2023/04/15 10:48:06;;;;;;;13.32;7.78;;;;;;;11.42;66.19;99452.22;5059540;28;20402;-77
2023/04/15 10:50:32;;;;;;;10.82;5.32;;;;;;;11.43;66.63;99449.22;5059098;28;20532;-77
2023/04/15 10:52:58;;;;;;;12.73;6.18;;;;;;;11.42;66.38;99446.78;5060738;28;20032;-77
2023/04/15 10:55:26;;;;;;;10.75;5.95;;;;;;;11.30;66.61;99456.09;5059570;28;20508;-78
2023/04/15 10:57:53;;;;;;;8.88;5.07;;;;;;;10.97;67.86;99463.78;5059889;28;21670;-77
2023/04/15 11:00:24;;;;;;;10.95;4.72;;;;;;;11.00;67.60;99462.44;5059490;28;20033;-77
2023/04/15 11:02:57;;;;;;;11.02;5.40;;;;;;;10.92;68.24;99461.09;5058676;28;20064;-79
2023/04/15 11:05:49;;;;;;;13.80;5.82;;;;;;;10.90;67.98;99466.00;5058068;28;20124;-78
2023/04/15 11:08:16;;;;;;;11.55;5.13;;;;;;;10.85;67.92;99472.25;5059585;28;20040;-78
2023/04/15 11:10:41;;;;;;;10.02;4.47;;;;;;;10.86;68.43;99471.97;5058273;28;20036;-78
2023/04/15 11:13:16;;;;;;;13.57;6.30;;;;;;;10.84;68.65;99468.72;5059101;28;20500;-79
2023/04/15 11:15:43;;;;;;;10.52;5.30;;;;;;;10.78;68.97;99472.53;5058502;28;20035;-78
2023/04/15 11:18:17;;;;;;;9.38;5.00;;;;;;;10.73;68.76;99475.28;5058019;28;20489;-78
2023/04/15 11:20:49;;;;;;;8.13;4.90;;;;;;;10.56;69.70;99475.53;5059147;28;20041;-78